sensor_id;sensor_type;location;lat;lon;timestamp;P1;durP1;ratioP1;P2;durP2;ratioP2
8401;SDS011;4238;48.404;9.498;2022-09-09T00:01:42;2.40;;;1.40;;
8401;SDS011;4238;48.404;9.498;2022-09-09T00:04:19;2.00;;;0.90;;
8401;SDS011;4238;48.404;9.498;2022-09-09T00:06:55;1.60;;;1.10;;
8401;SDS011;4238;48.404;9.498;2022-09-09T00:09:27;2.87;;;1.50;;
8401;SDS011;4238;48.404;9.498;2022-09-09T00:11:58;2.30;;;1.63;;
8401;SDS011;4238;48.404;9.498;2022-09-09T00:14:34;1.30;;;1.20;;
8401;SDS011;4238;48.404;9.498;2022-09-09T00:17:07;2.07;;;1.23;;
8401;SDS011;4238;48.404;9.498;2022-09-09T00:19:41;1.33;;;1.10;;
8401;SDS011;4238;48.404;9.498;2022-09-09T00:22:16;2.00;;;1.50;;
8401;SDS011;4238;48.404;9.498;2022-09-09T00:24:44;1.20;;;1.10;;
8401;SDS011;4238;48.404;9.498;2022-09-09T00:27:16;1.87;;;1.47;;
8401;SDS011;4238;48.404;9.498;2022-09-09T00:29:51;2.10;;;1.53;;
8401;SDS011;4238;48.404;9.498;2022-09-09T00:32:21;1.07;;;1.07;;
8401;SDS011;4238;48.404;9.498;2022-09-09T00:34:51;1.77;;;1.43;;
8401;SDS011;4238;48.404;9.498;2022-09-09T00:37:21;3.47;;;1.27;;
8401;SDS011;4238;48.404;9.498;2022-09-09T00:39:51;1.10;;;1.00;;
8401;SDS011;4238;48.404;9.498;2022-09-09T00:42:23;1.83;;;1.30;;
8401;SDS011;4238;48.404;9.498;2022-09-09T00:44:58;2.72;;;1.38;;
8401;SDS011;4238;48.404;9.498;2022-09-09T00:47:43;1.87;;;1.37;;
8401;SDS011;4238;48.404;9.498;2022-09-09T00:50:29;1.10;;;0.90;;
8401;SDS011;4238;48.404;9.498;2022-09-09T00:53:06;2.13;;;1.53;;
8401;SDS011;4238;48.404;9.498;2022-09-09T00:55:52;1.37;;;1.27;;
8401;SDS011;4238;48.404;9.498;2022-09-09T00:58:26;2.57;;;1.20;;
8401;SDS011;4238;48.404;9.498;2022-09-09T01:00:55;3.33;;;1.07;;
8401;SDS011;4238;48.404;9.498;2022-09-09T01:03:33;2.67;;;1.10;;
8401;SDS011;4238;48.404;9.498;2022-09-09T01:06:11;0.97;;;0.90;;
8401;SDS011;4238;48.404;9.498;2022-09-09T01:08:42;2.40;;;1.17;;
8401;SDS011;4238;48.404;9.498;2022-09-09T01:11:35;1.87;;;1.47;;
8401;SDS011;4238;48.404;9.498;2022-09-09T01:14:19;1.60;;;1.50;;
8401;SDS011;4238;48.404;9.498;2022-09-09T01:16:57;1.10;;;1.10;;
8401;SDS011;4238;48.404;9.498;2022-09-09T01:19:32;1.60;;;1.27;;
8401;SDS011;4238;48.404;9.498;2022-09-09T01:22:10;1.00;;;1.00;;
8401;SDS011;4238;48.404;9.498;2022-09-09T01:24:48;1.30;;;1.20;;
8401;SDS011;4238;48.404;9.498;2022-09-09T01:27:35;2.70;;;1.17;;
8401;SDS011;4238;48.404;9.498;2022-09-09T01:30:04;2.20;;;1.27;;
8401;SDS011;4238;48.404;9.498;2022-09-09T01:32:39;3.13;;;1.60;;
8401;SDS011;4238;48.404;9.498;2022-09-09T01:35:09;6.00;;;1.43;;
8401;SDS011;4238;48.404;9.498;2022-09-09T01:37:39;2.27;;;1.13;;
8401;SDS011;4238;48.404;9.498;2022-09-09T01:40:07;2.47;;;1.77;;
8401;SDS011;4238;48.404;9.498;2022-09-09T01:42:35;1.87;;;1.63;;
8401;SDS011;4238;48.404;9.498;2022-09-09T01:45:02;2.23;;;1.20;;
8401;SDS011;4238;48.404;9.498;2022-09-09T01:47:31;1.77;;;1.57;;
8401;SDS011;4238;48.404;9.498;2022-09-09T01:49:57;1.73;;;1.20;;
8401;SDS011;4238;48.404;9.498;2022-09-09T01:52:25;1.23;;;1.13;;
8401;SDS011;4238;48.404;9.498;2022-09-09T01:54:52;2.63;;;1.57;;
8401;SDS011;4238;48.404;9.498;2022-09-09T01:57:20;2.10;;;1.27;;
8401;SDS011;4238;48.404;9.498;2022-09-09T01:59:57;1.97;;;1.27;;
8401;SDS011;4238;48.404;9.498;2022-09-09T02:02:32;1.40;;;1.30;;
8401;SDS011;4238;48.404;9.498;2022-09-09T02:05:05;2.70;;;1.97;;
8401;SDS011;4238;48.404;9.498;2022-09-09T02:07:38;3.77;;;1.73;;
8401;SDS011;4238;48.404;9.498;2022-09-09T02:10:09;1.47;;;1.37;;
8401;SDS011;4238;48.404;9.498;2022-09-09T02:12:39;2.03;;;1.37;;
8401;SDS011;4238;48.404;9.498;2022-09-09T02:15:13;1.57;;;1.20;;
8401;SDS011;4238;48.404;9.498;2022-09-09T02:17:46;1.97;;;1.40;;
8401;SDS011;4238;48.404;9.498;2022-09-09T02:20:16;3.77;;;1.77;;
8401;SDS011;4238;48.404;9.498;2022-09-09T02:22:46;1.10;;;1.10;;
8401;SDS011;4238;48.404;9.498;2022-09-09T02:25:17;3.10;;;1.30;;
8401;SDS011;4238;48.404;9.498;2022-09-09T02:27:47;2.27;;;1.40;;
8401;SDS011;4238;48.404;9.498;2022-09-09T02:30:18;2.33;;;1.20;;
8401;SDS011;4238;48.404;9.498;2022-09-09T02:32:45;4.20;;;1.60;;
8401;SDS011;4238;48.404;9.498;2022-09-09T02:35:15;1.50;;;1.40;;
8401;SDS011;4238;48.404;9.498;2022-09-09T02:37:46;2.63;;;1.40;;
8401;SDS011;4238;48.404;9.498;2022-09-09T02:40:15;1.77;;;1.30;;
8401;SDS011;4238;48.404;9.498;2022-09-09T02:42:43;1.60;;;1.33;;
8401;SDS011;4238;48.404;9.498;2022-09-09T02:45:12;1.47;;;1.13;;
8401;SDS011;4238;48.404;9.498;2022-09-09T02:47:44;1.10;;;1.03;;
8401;SDS011;4238;48.404;9.498;2022-09-09T02:50:17;3.23;;;1.47;;
8401;SDS011;4238;48.404;9.498;2022-09-09T02:52:52;1.53;;;1.20;;
8401;SDS011;4238;48.404;9.498;2022-09-09T02:55:30;2.80;;;1.30;;
8401;SDS011;4238;48.404;9.498;2022-09-09T02:58:04;2.63;;;1.63;;
8401;SDS011;4238;48.404;9.498;2022-09-09T03:00:33;1.53;;;1.33;;
8401;SDS011;4238;48.404;9.498;2022-09-09T03:03:03;1.80;;;1.70;;
8401;SDS011;4238;48.404;9.498;2022-09-09T03:05:30;3.40;;;1.63;;
8401;SDS011;4238;48.404;9.498;2022-09-09T03:07:57;1.90;;;1.57;;
8401;SDS011;4238;48.404;9.498;2022-09-09T03:10:24;3.03;;;1.50;;
8401;SDS011;4238;48.404;9.498;2022-09-09T03:12:51;2.27;;;1.57;;
8401;SDS011;4238;48.404;9.498;2022-09-09T03:15:18;1.90;;;1.33;;
8401;SDS011;4238;48.404;9.498;2022-09-09T03:17:45;1.67;;;1.23;;
8401;SDS011;4238;48.404;9.498;2022-09-09T03:20:13;1.97;;;1.50;;
8401;SDS011;4238;48.404;9.498;2022-09-09T03:22:40;1.77;;;1.37;;
8401;SDS011;4238;48.404;9.498;2022-09-09T03:25:08;4.20;;;1.90;;
8401;SDS011;4238;48.404;9.498;2022-09-09T03:27:35;1.60;;;1.27;;
8401;SDS011;4238;48.404;9.498;2022-09-09T03:30:02;1.77;;;1.37;;
8401;SDS011;4238;48.404;9.498;2022-09-09T03:32:31;1.30;;;1.20;;
8401;SDS011;4238;48.404;9.498;2022-09-09T03:34:58;1.90;;;1.20;;
8401;SDS011;4238;48.404;9.498;2022-09-09T03:37:26;1.10;;;1.10;;
8401;SDS011;4238;48.404;9.498;2022-09-09T03:39:53;1.45;;;1.23;;
8401;SDS011;4238;48.404;9.498;2022-09-09T03:42:20;1.83;;;1.73;;
8401;SDS011;4238;48.404;9.498;2022-09-09T03:44:47;1.60;;;1.50;;
8401;SDS011;4238;48.404;9.498;2022-09-09T03:47:15;1.60;;;1.30;;
8401;SDS011;4238;48.404;9.498;2022-09-09T03:49:44;2.92;;;1.58;;
8401;SDS011;4238;48.404;9.498;2022-09-09T03:52:11;2.17;;;1.77;;
8401;SDS011;4238;48.404;9.498;2022-09-09T03:54:40;2.47;;;1.85;;
8401;SDS011;4238;48.404;9.498;2022-09-09T03:57:07;2.47;;;2.20;;
8401;SDS011;4238;48.404;9.498;2022-09-09T03:59:35;2.15;;;2.05;;
8401;SDS011;4238;48.404;9.498;2022-09-09T04:02:02;2.10;;;2.00;;
8401;SDS011;4238;48.404;9.498;2022-09-09T04:04:29;5.00;;;2.03;;
8401;SDS011;4238;48.404;9.498;2022-09-09T04:06:56;1.80;;;1.70;;
8401;SDS011;4238;48.404;9.498;2022-09-09T04:09:23;2.15;;;1.73;;
8401;SDS011;4238;48.404;9.498;2022-09-09T04:11:51;2.72;;;1.90;;
8401;SDS011;4238;48.404;9.498;2022-09-09T04:14:19;3.55;;;2.22;;
8401;SDS011;4238;48.404;9.498;2022-09-09T04:16:46;2.97;;;1.63;;
8401;SDS011;4238;48.404;9.498;2022-09-09T04:19:13;2.30;;;1.83;;
8401;SDS011;4238;48.404;9.498;2022-09-09T04:21:40;2.17;;;1.85;;
8401;SDS011;4238;48.404;9.498;2022-09-09T04:24:07;2.33;;;1.80;;
8401;SDS011;4238;48.404;9.498;2022-09-09T04:26:35;2.20;;;2.10;;
8401;SDS011;4238;48.404;9.498;2022-09-09T04:29:04;3.67;;;1.90;;
8401;SDS011;4238;48.404;9.498;2022-09-09T04:31:32;2.88;;;2.10;;
8401;SDS011;4238;48.404;9.498;2022-09-09T04:33:59;2.28;;;2.08;;
8401;SDS011;4238;48.404;9.498;2022-09-09T04:36:30;4.40;;;2.00;;
8401;SDS011;4238;48.404;9.498;2022-09-09T04:38:57;3.30;;;2.20;;
8401;SDS011;4238;48.404;9.498;2022-09-09T04:41:25;3.30;;;1.80;;
8401;SDS011;4238;48.404;9.498;2022-09-09T04:43:52;2.90;;;2.03;;
8401;SDS011;4238;48.404;9.498;2022-09-09T04:46:20;3.13;;;1.63;;
8401;SDS011;4238;48.404;9.498;2022-09-09T04:48:48;3.00;;;1.67;;
8401;SDS011;4238;48.404;9.498;2022-09-09T04:51:15;4.33;;;1.93;;
8401;SDS011;4238;48.404;9.498;2022-09-09T04:53:42;2.15;;;1.95;;
8401;SDS011;4238;48.404;9.498;2022-09-09T04:56:10;2.28;;;1.70;;
8401;SDS011;4238;48.404;9.498;2022-09-09T04:58:38;3.95;;;2.05;;
8401;SDS011;4238;48.404;9.498;2022-09-09T05:01:07;3.53;;;2.00;;
8401;SDS011;4238;48.404;9.498;2022-09-09T05:03:37;4.60;;;1.97;;
8401;SDS011;4238;48.404;9.498;2022-09-09T05:06:05;1.80;;;1.70;;
8401;SDS011;4238;48.404;9.498;2022-09-09T05:08:33;1.90;;;1.80;;
8401;SDS011;4238;48.404;9.498;2022-09-09T05:11:00;2.42;;;2.22;;
8401;SDS011;4238;48.404;9.498;2022-09-09T05:13:28;2.05;;;1.95;;
8401;SDS011;4238;48.404;9.498;2022-09-09T05:15:57;3.70;;;2.23;;
8401;SDS011;4238;48.404;9.498;2022-09-09T05:18:24;2.00;;;1.80;;
8401;SDS011;4238;48.404;9.498;2022-09-09T05:20:56;1.80;;;1.70;;
8401;SDS011;4238;48.404;9.498;2022-09-09T05:23:25;3.83;;;1.80;;
8401;SDS011;4238;48.404;9.498;2022-09-09T05:25:56;2.33;;;2.13;;
8401;SDS011;4238;48.404;9.498;2022-09-09T05:28:23;2.38;;;2.20;;
8401;SDS011;4238;48.404;9.498;2022-09-09T05:30:58;2.10;;;2.00;;
8401;SDS011;4238;48.404;9.498;2022-09-09T05:33:26;2.30;;;2.10;;
8401;SDS011;4238;48.404;9.498;2022-09-09T05:35:58;2.72;;;2.50;;
8401;SDS011;4238;48.404;9.498;2022-09-09T05:38:26;2.30;;;2.10;;
8401;SDS011;4238;48.404;9.498;2022-09-09T05:40:53;3.38;;;2.53;;
8401;SDS011;4238;48.404;9.498;2022-09-09T05:43:21;2.13;;;2.03;;
8401;SDS011;4238;48.404;9.498;2022-09-09T05:45:58;2.97;;;2.60;;
8401;SDS011;4238;48.404;9.498;2022-09-09T05:48:27;2.25;;;2.05;;
8401;SDS011;4238;48.404;9.498;2022-09-09T05:50:55;3.63;;;2.33;;
8401;SDS011;4238;48.404;9.498;2022-09-09T05:53:23;2.78;;;2.45;;
8401;SDS011;4238;48.404;9.498;2022-09-09T05:55:57;2.17;;;2.07;;
8401;SDS011;4238;48.404;9.498;2022-09-09T05:58:26;2.30;;;1.53;;
8401;SDS011;4238;48.404;9.498;2022-09-09T06:00:59;2.58;;;2.28;;
8401;SDS011;4238;48.404;9.498;2022-09-09T06:03:27;2.80;;;2.60;;
8401;SDS011;4238;48.404;9.498;2022-09-09T06:05:58;2.75;;;2.55;;
8401;SDS011;4238;48.404;9.498;2022-09-09T06:08:27;3.55;;;2.53;;
8401;SDS011;4238;48.404;9.498;2022-09-09T06:11:00;2.80;;;2.55;;
8401;SDS011;4238;48.404;9.498;2022-09-09T06:13:28;3.42;;;2.72;;
8401;SDS011;4238;48.404;9.498;2022-09-09T06:15:55;2.53;;;2.33;;
8401;SDS011;4238;48.404;9.498;2022-09-09T06:18:23;1.92;;;1.75;;
8401;SDS011;4238;48.404;9.498;2022-09-09T06:20:54;3.08;;;2.55;;
8401;SDS011;4238;48.404;9.498;2022-09-09T06:23:22;2.90;;;2.50;;
8401;SDS011;4238;48.404;9.498;2022-09-09T06:25:51;2.58;;;2.35;;
8401;SDS011;4238;48.404;9.498;2022-09-09T06:28:26;2.95;;;2.60;;
8401;SDS011;4238;48.404;9.498;2022-09-09T06:30:56;3.20;;;2.47;;
8401;SDS011;4238;48.404;9.498;2022-09-09T06:33:24;2.95;;;2.70;;
8401;SDS011;4238;48.404;9.498;2022-09-09T06:35:51;3.40;;;2.60;;
8401;SDS011;4238;48.404;9.498;2022-09-09T06:38:19;2.30;;;2.20;;
8401;SDS011;4238;48.404;9.498;2022-09-09T06:40:52;3.85;;;2.85;;
8401;SDS011;4238;48.404;9.498;2022-09-09T06:43:20;2.80;;;2.40;;
8401;SDS011;4238;48.404;9.498;2022-09-09T06:45:52;3.40;;;2.38;;
8401;SDS011;4238;48.404;9.498;2022-09-09T06:48:20;2.20;;;2.10;;
8401;SDS011;4238;48.404;9.498;2022-09-09T06:50:47;1.98;;;1.88;;
8401;SDS011;4238;48.404;9.498;2022-09-09T06:53:15;3.08;;;2.33;;
8401;SDS011;4238;48.404;9.498;2022-09-09T06:55:44;2.95;;;2.30;;
8401;SDS011;4238;48.404;9.498;2022-09-09T06:58:13;2.58;;;2.38;;
8401;SDS011;4238;48.404;9.498;2022-09-09T07:00:39;1.92;;;1.70;;
8401;SDS011;4238;48.404;9.498;2022-09-09T07:03:07;3.40;;;2.13;;
8401;SDS011;4238;48.404;9.498;2022-09-09T07:05:35;2.67;;;1.85;;
8401;SDS011;4238;48.404;9.498;2022-09-09T07:08:02;2.17;;;1.52;;
8401;SDS011;4238;48.404;9.498;2022-09-09T07:10:30;2.97;;;2.22;;
8401;SDS011;4238;48.404;9.498;2022-09-09T07:12:59;3.42;;;2.05;;
8401;SDS011;4238;48.404;9.498;2022-09-09T07:15:28;1.63;;;1.52;;
8401;SDS011;4238;48.404;9.498;2022-09-09T07:17:55;2.17;;;2.00;;
8401;SDS011;4238;48.404;9.498;2022-09-09T07:20:26;2.20;;;2.00;;
8401;SDS011;4238;48.404;9.498;2022-09-09T07:22:54;2.08;;;1.88;;
8401;SDS011;4238;48.404;9.498;2022-09-09T07:25:21;2.53;;;1.98;;
8401;SDS011;4238;48.404;9.498;2022-09-09T07:27:48;1.88;;;1.77;;
8401;SDS011;4238;48.404;9.498;2022-09-09T07:30:15;2.63;;;2.08;;
8401;SDS011;4238;48.404;9.498;2022-09-09T07:32:44;2.28;;;2.08;;
8401;SDS011;4238;48.404;9.498;2022-09-09T07:35:11;1.90;;;1.80;;
8401;SDS011;4238;48.404;9.498;2022-09-09T07:37:38;1.83;;;1.60;;
8401;SDS011;4238;48.404;9.498;2022-09-09T07:40:06;2.35;;;2.15;;
8401;SDS011;4238;48.404;9.498;2022-09-09T07:42:33;1.75;;;1.63;;
8401;SDS011;4238;48.404;9.498;2022-09-09T07:45:01;2.47;;;1.77;;
8401;SDS011;4238;48.404;9.498;2022-09-09T07:47:28;2.88;;;1.80;;
8401;SDS011;4238;48.404;9.498;2022-09-09T07:49:57;1.80;;;1.70;;
8401;SDS011;4238;48.404;9.498;2022-09-09T07:52:24;2.03;;;1.83;;
8401;SDS011;4238;48.404;9.498;2022-09-09T07:54:52;2.38;;;1.70;;
8401;SDS011;4238;48.404;9.498;2022-09-09T07:57:19;2.40;;;2.20;;
8401;SDS011;4238;48.404;9.498;2022-09-09T07:59:46;1.80;;;1.70;;
8401;SDS011;4238;48.404;9.498;2022-09-09T08:02:13;2.63;;;1.90;;
8401;SDS011;4238;48.404;9.498;2022-09-09T08:04:40;1.98;;;1.73;;
8401;SDS011;4238;48.404;9.498;2022-09-09T08:07:08;2.20;;;1.98;;
8401;SDS011;4238;48.404;9.498;2022-09-09T08:09:35;2.30;;;1.90;;
8401;SDS011;4238;48.404;9.498;2022-09-09T08:12:02;1.70;;;1.60;;
8401;SDS011;4238;48.404;9.498;2022-09-09T08:14:31;3.03;;;1.88;;
8401;SDS011;4238;48.404;9.498;2022-09-09T08:16:58;1.70;;;1.60;;
8401;SDS011;4238;48.404;9.498;2022-09-09T08:19:25;6.03;;;1.85;;
8401;SDS011;4238;48.404;9.498;2022-09-09T08:21:54;3.58;;;2.22;;
8401;SDS011;4238;48.404;9.498;2022-09-09T08:24:22;1.85;;;1.63;;
8401;SDS011;4238;48.404;9.498;2022-09-09T08:26:49;2.22;;;2.05;;
8401;SDS011;4238;48.404;9.498;2022-09-09T08:29:16;1.73;;;1.63;;
8401;SDS011;4238;48.404;9.498;2022-09-09T08:31:44;1.88;;;1.70;;
8401;SDS011;4238;48.404;9.498;2022-09-09T08:34:12;2.17;;;1.77;;
8401;SDS011;4238;48.404;9.498;2022-09-09T08:36:39;1.80;;;1.70;;
8401;SDS011;4238;48.404;9.498;2022-09-09T08:39:09;1.52;;;1.40;;
8401;SDS011;4238;48.404;9.498;2022-09-09T08:44:40;1.58;;;1.48;;
8401;SDS011;4238;48.404;9.498;2022-09-09T08:47:18;3.38;;;1.75;;
8401;SDS011;4238;48.404;9.498;2022-09-09T08:49:55;2.38;;;2.17;;
8401;SDS011;4238;48.404;9.498;2022-09-09T08:52:36;1.58;;;1.50;;
8401;SDS011;4238;48.404;9.498;2022-09-09T08:55:13;2.38;;;1.73;;
8401;SDS011;4238;48.404;9.498;2022-09-09T08:57:49;2.50;;;1.80;;
8401;SDS011;4238;48.404;9.498;2022-09-09T09:00:18;3.45;;;1.92;;
8401;SDS011;4238;48.404;9.498;2022-09-09T09:02:46;3.90;;;2.00;;
8401;SDS011;4238;48.404;9.498;2022-09-09T09:05:23;3.42;;;1.58;;
8401;SDS011;4238;48.404;9.498;2022-09-09T09:07:59;3.90;;;2.17;;
8401;SDS011;4238;48.404;9.498;2022-09-09T09:10:40;5.00;;;2.05;;
8401;SDS011;4238;48.404;9.498;2022-09-09T09:13:15;1.85;;;1.75;;
8401;SDS011;4238;48.404;9.498;2022-09-09T09:15:47;2.65;;;2.00;;
8401;SDS011;4238;48.404;9.498;2022-09-09T09:18:18;3.42;;;1.90;;
8401;SDS011;4238;48.404;9.498;2022-09-09T09:20:49;2.22;;;1.85;;
8401;SDS011;4238;48.404;9.498;2022-09-09T09:23:21;1.63;;;1.52;;
8401;SDS011;4238;48.404;9.498;2022-09-09T09:25:50;2.15;;;1.95;;
8401;SDS011;4238;48.404;9.498;2022-09-09T09:28:24;4.22;;;1.52;;
8401;SDS011;4238;48.404;9.498;2022-09-09T09:30:53;3.83;;;2.30;;
8401;SDS011;4238;48.404;9.498;2022-09-09T09:33:24;3.20;;;1.60;;
8401;SDS011;4238;48.404;9.498;2022-09-09T09:35:56;3.08;;;1.30;;
8401;SDS011;4238;48.404;9.498;2022-09-09T09:38:25;4.18;;;1.80;;
8401;SDS011;4238;48.404;9.498;2022-09-09T09:40:53;3.05;;;1.27;;
8401;SDS011;4238;48.404;9.498;2022-09-09T09:43:25;1.55;;;1.15;;
8401;SDS011;4238;48.404;9.498;2022-09-09T09:45:53;2.50;;;1.45;;
8401;SDS011;4238;48.404;9.498;2022-09-09T09:48:23;3.97;;;1.50;;
8401;SDS011;4238;48.404;9.498;2022-09-09T09:50:50;2.83;;;1.10;;
8401;SDS011;4238;48.404;9.498;2022-09-09T09:53:20;3.33;;;1.33;;
8401;SDS011;4238;48.404;9.498;2022-09-09T09:55:51;3.50;;;1.27;;
8401;SDS011;4238;48.404;9.498;2022-09-09T09:58:21;3.20;;;1.60;;
8401;SDS011;4238;48.404;9.498;2022-09-09T10:00:51;1.98;;;1.40;;
8401;SDS011;4238;48.404;9.498;2022-09-09T10:03:21;1.33;;;1.23;;
8401;SDS011;4238;48.404;9.498;2022-09-09T10:05:49;1.50;;;1.38;;
8401;SDS011;4238;48.404;9.498;2022-09-09T10:08:17;1.08;;;1.05;;
8401;SDS011;4238;48.404;9.498;2022-09-09T10:11:02;1.63;;;1.23;;
8401;SDS011;4238;48.404;9.498;2022-09-09T10:13:43;1.30;;;1.20;;
8401;SDS011;4238;48.404;9.498;2022-09-09T10:16:24;5.32;;;1.63;;
8401;SDS011;4238;48.404;9.498;2022-09-09T10:19:05;2.05;;;1.38;;
8401;SDS011;4238;48.404;9.498;2022-09-09T10:21:43;1.83;;;1.30;;
8401;SDS011;4238;48.404;9.498;2022-09-09T10:24:41;1.45;;;1.25;;
8401;SDS011;4238;48.404;9.498;2022-09-09T10:27:28;3.00;;;1.40;;
8401;SDS011;4238;48.404;9.498;2022-09-09T10:30:08;3.20;;;1.42;;
8401;SDS011;4238;48.404;9.498;2022-09-09T10:32:44;2.60;;;1.25;;
8401;SDS011;4238;48.404;9.498;2022-09-09T10:35:29;2.10;;;1.48;;
8401;SDS011;4238;48.404;9.498;2022-09-09T10:41:06;2.25;;;1.20;;
8401;SDS011;4238;48.404;9.498;2022-09-09T10:43:42;3.28;;;1.58;;
8401;SDS011;4238;48.404;9.498;2022-09-09T10:46:31;3.75;;;1.40;;
8401;SDS011;4238;48.404;9.498;2022-09-09T10:49:10;2.78;;;1.10;;
8401;SDS011;4238;48.404;9.498;2022-09-09T10:51:49;2.22;;;1.50;;
8401;SDS011;4238;48.404;9.498;2022-09-09T10:54:34;2.00;;;1.20;;
8401;SDS011;4238;48.404;9.498;2022-09-09T10:57:17;1.25;;;1.10;;
8401;SDS011;4238;48.404;9.498;2022-09-09T10:59:51;2.92;;;1.38;;
8401;SDS011;4238;48.404;9.498;2022-09-09T11:02:25;1.40;;;1.02;;
8401;SDS011;4238;48.404;9.498;2022-09-09T11:04:56;1.42;;;0.93;;
8401;SDS011;4238;48.404;9.498;2022-09-09T11:07:28;1.85;;;0.90;;
8401;SDS011;4238;48.404;9.498;2022-09-09T11:10:01;1.23;;;0.98;;
8401;SDS011;4238;48.404;9.498;2022-09-09T11:12:33;2.00;;;0.80;;
8401;SDS011;4238;48.404;9.498;2022-09-09T11:15:04;2.15;;;0.73;;
8401;SDS011;4238;48.404;9.498;2022-09-09T11:17:35;2.05;;;1.05;;
8401;SDS011;4238;48.404;9.498;2022-09-09T11:20:10;1.65;;;0.98;;
8401;SDS011;4238;48.404;9.498;2022-09-09T11:22:39;0.43;;;0.43;;
8401;SDS011;4238;48.404;9.498;2022-09-09T11:25:14;4.32;;;1.17;;
8401;SDS011;4238;48.404;9.498;2022-09-09T11:27:49;0.98;;;0.75;;
8401;SDS011;4238;48.404;9.498;2022-09-09T11:30:31;2.55;;;1.20;;
8401;SDS011;4238;48.404;9.498;2022-09-09T11:33:24;1.42;;;1.08;;
8401;SDS011;4238;48.404;9.498;2022-09-09T11:36:21;1.30;;;0.93;;
8401;SDS011;4238;48.404;9.498;2022-09-09T11:39:05;1.38;;;0.90;;
8401;SDS011;4238;48.404;9.498;2022-09-09T11:41:44;1.30;;;0.90;;
8401;SDS011;4238;48.404;9.498;2022-09-09T11:44:11;1.33;;;1.00;;
8401;SDS011;4238;48.404;9.498;2022-09-09T11:46:43;1.55;;;0.90;;
8401;SDS011;4238;48.404;9.498;2022-09-09T11:49:25;1.13;;;1.02;;
8401;SDS011;4238;48.404;9.498;2022-09-09T11:51:55;1.48;;;0.95;;
8401;SDS011;4238;48.404;9.498;2022-09-09T11:54:27;2.28;;;0.80;;
8401;SDS011;4238;48.404;9.498;2022-09-09T11:56:55;1.33;;;1.05;;
8401;SDS011;4238;48.404;9.498;2022-09-09T11:59:23;1.52;;;1.00;;
8401;SDS011;4238;48.404;9.498;2022-09-09T12:01:54;1.40;;;0.73;;
8401;SDS011;4238;48.404;9.498;2022-09-09T12:04:30;0.90;;;0.80;;
8401;SDS011;4238;48.404;9.498;2022-09-09T12:07:04;1.73;;;0.93;;
8401;SDS011;4238;48.404;9.498;2022-09-09T12:09:49;1.73;;;1.00;;
8401;SDS011;4238;48.404;9.498;2022-09-09T12:12:25;1.35;;;1.25;;
8401;SDS011;4238;48.404;9.498;2022-09-09T12:17:47;0.85;;;0.77;;
8401;SDS011;4238;48.404;9.498;2022-09-09T12:20:17;1.50;;;1.13;;
8401;SDS011;4238;48.404;9.498;2022-09-09T12:25:56;2.28;;;1.15;;
8401;SDS011;4238;48.404;9.498;2022-09-09T12:28:41;0.63;;;0.63;;
8401;SDS011;4238;48.404;9.498;2022-09-09T12:31:17;1.15;;;0.82;;
8401;SDS011;4238;48.404;9.498;2022-09-09T12:33:47;1.48;;;0.95;;
8401;SDS011;4238;48.404;9.498;2022-09-09T12:36:15;0.65;;;0.65;;
8401;SDS011;4238;48.404;9.498;2022-09-09T12:38:46;1.30;;;0.93;;
8401;SDS011;4238;48.404;9.498;2022-09-09T12:41:19;1.00;;;0.90;;
8401;SDS011;4238;48.404;9.498;2022-09-09T12:43:47;2.20;;;1.08;;
8401;SDS011;4238;48.404;9.498;2022-09-09T12:46:17;1.00;;;0.88;;
8401;SDS011;4238;48.404;9.498;2022-09-09T12:48:51;0.63;;;0.63;;
8401;SDS011;4238;48.404;9.498;2022-09-09T12:51:21;1.05;;;0.77;;
8401;SDS011;4238;48.404;9.498;2022-09-09T12:53:53;1.25;;;1.15;;
8401;SDS011;4238;48.404;9.498;2022-09-09T12:56:22;1.33;;;1.10;;
8401;SDS011;4238;48.404;9.498;2022-09-09T12:58:52;1.20;;;0.98;;
8401;SDS011;4238;48.404;9.498;2022-09-09T13:01:22;1.13;;;1.10;;
8401;SDS011;4238;48.404;9.498;2022-09-09T13:03:50;1.10;;;1.00;;
8401;SDS011;4238;48.404;9.498;2022-09-09T13:06:19;3.15;;;0.65;;
8401;SDS011;4238;48.404;9.498;2022-09-09T13:08:48;1.23;;;1.10;;
8401;SDS011;4238;48.404;9.498;2022-09-09T13:11:18;1.25;;;1.10;;
8401;SDS011;4238;48.404;9.498;2022-09-09T13:13:50;2.38;;;1.45;;
8401;SDS011;4238;48.404;9.498;2022-09-09T13:16:19;0.80;;;0.80;;
8401;SDS011;4238;48.404;9.498;2022-09-09T13:18:48;1.45;;;0.88;;
8401;SDS011;4238;48.404;9.498;2022-09-09T13:21:15;1.60;;;0.80;;
8401;SDS011;4238;48.404;9.498;2022-09-09T13:23:47;1.00;;;1.00;;
8401;SDS011;4238;48.404;9.498;2022-09-09T13:26:23;0.80;;;0.80;;
8401;SDS011;4238;48.404;9.498;2022-09-09T13:28:52;1.95;;;1.27;;
8401;SDS011;4238;48.404;9.498;2022-09-09T13:31:21;1.35;;;1.25;;
8401;SDS011;4238;48.404;9.498;2022-09-09T13:33:49;2.50;;;1.25;;
8401;SDS011;4238;48.404;9.498;2022-09-09T13:36:26;1.98;;;1.02;;
8401;SDS011;4238;48.404;9.498;2022-09-09T13:38:56;1.83;;;1.00;;
8401;SDS011;4238;48.404;9.498;2022-09-09T13:41:27;2.42;;;1.02;;
8401;SDS011;4238;48.404;9.498;2022-09-09T13:43:57;1.38;;;1.15;;
8401;SDS011;4238;48.404;9.498;2022-09-09T13:46:25;3.88;;;1.05;;
8401;SDS011;4238;48.404;9.498;2022-09-09T13:48:57;2.67;;;1.25;;
8401;SDS011;4238;48.404;9.498;2022-09-09T13:51:28;3.67;;;1.60;;
8401;SDS011;4238;48.404;9.498;2022-09-09T13:54:02;1.23;;;1.10;;
8401;SDS011;4238;48.404;9.498;2022-09-09T13:56:31;1.80;;;0.90;;
8401;SDS011;4238;48.404;9.498;2022-09-09T13:58:58;2.83;;;1.27;;
8401;SDS011;4238;48.404;9.498;2022-09-09T14:01:25;0.80;;;0.80;;
8401;SDS011;4238;48.404;9.498;2022-09-09T14:03:53;0.60;;;0.60;;
8401;SDS011;4238;48.404;9.498;2022-09-09T14:06:20;0.95;;;0.90;;
8401;SDS011;4238;48.404;9.498;2022-09-09T14:08:48;2.03;;;1.17;;
8401;SDS011;4238;48.404;9.498;2022-09-09T14:11:16;1.38;;;1.23;;
8401;SDS011;4238;48.404;9.498;2022-09-09T14:13:45;2.70;;;0.90;;
8401;SDS011;4238;48.404;9.498;2022-09-09T14:16:12;1.00;;;0.55;;
8401;SDS011;4238;48.404;9.498;2022-09-09T14:18:39;0.73;;;0.73;;
8401;SDS011;4238;48.404;9.498;2022-09-09T14:21:07;1.05;;;0.95;;
8401;SDS011;4238;48.404;9.498;2022-09-09T14:23:34;0.95;;;0.82;;
8401;SDS011;4238;48.404;9.498;2022-09-09T14:26:02;2.38;;;1.10;;
8401;SDS011;4238;48.404;9.498;2022-09-09T14:28:29;3.55;;;0.80;;
8401;SDS011;4238;48.404;9.498;2022-09-09T14:31:00;1.58;;;0.95;;
8401;SDS011;4238;48.404;9.498;2022-09-09T14:33:27;1.38;;;1.00;;
8401;SDS011;4238;48.404;9.498;2022-09-09T14:35:55;1.80;;;1.00;;
8401;SDS011;4238;48.404;9.498;2022-09-09T14:38:23;1.08;;;0.98;;
8401;SDS011;4238;48.404;9.498;2022-09-09T14:40:50;2.15;;;1.20;;
8401;SDS011;4238;48.404;9.498;2022-09-09T14:43:17;1.42;;;0.93;;
8401;SDS011;4238;48.404;9.498;2022-09-09T14:45:44;0.65;;;0.65;;
8401;SDS011;4238;48.404;9.498;2022-09-09T14:48:12;1.40;;;0.80;;
8401;SDS011;4238;48.404;9.498;2022-09-09T14:50:39;1.58;;;0.75;;
8401;SDS011;4238;48.404;9.498;2022-09-09T14:53:06;2.05;;;1.00;;
8401;SDS011;4238;48.404;9.498;2022-09-09T14:55:33;1.67;;;0.98;;
8401;SDS011;4238;48.404;9.498;2022-09-09T14:58:00;1.75;;;1.02;;
8401;SDS011;4238;48.404;9.498;2022-09-09T15:00:27;2.45;;;0.90;;
8401;SDS011;4238;48.404;9.498;2022-09-09T15:02:55;1.42;;;0.70;;
8401;SDS011;4238;48.404;9.498;2022-09-09T15:05:23;1.05;;;0.95;;
8401;SDS011;4238;48.404;9.498;2022-09-09T15:07:50;0.65;;;0.65;;
8401;SDS011;4238;48.404;9.498;2022-09-09T15:10:17;2.53;;;1.38;;
8401;SDS011;4238;48.404;9.498;2022-09-09T15:12:44;1.92;;;1.33;;
8401;SDS011;4238;48.404;9.498;2022-09-09T15:15:11;1.58;;;1.00;;
8401;SDS011;4238;48.404;9.498;2022-09-09T15:17:38;2.38;;;0.98;;
8401;SDS011;4238;48.404;9.498;2022-09-09T15:20:05;0.95;;;0.88;;
8401;SDS011;4238;48.404;9.498;2022-09-09T15:22:35;1.25;;;0.98;;
8401;SDS011;4238;48.404;9.498;2022-09-09T15:25:03;1.38;;;0.70;;
8401;SDS011;4238;48.404;9.498;2022-09-09T15:27:31;1.92;;;0.90;;
8401;SDS011;4238;48.404;9.498;2022-09-09T15:29:59;2.75;;;0.70;;
8401;SDS011;4238;48.404;9.498;2022-09-09T15:32:26;2.17;;;1.00;;
8401;SDS011;4238;48.404;9.498;2022-09-09T15:34:53;1.50;;;1.08;;
8401;SDS011;4238;48.404;9.498;2022-09-09T15:37:20;2.25;;;1.17;;
8401;SDS011;4238;48.404;9.498;2022-09-09T15:39:48;2.17;;;0.90;;
8401;SDS011;4238;48.404;9.498;2022-09-09T15:42:15;0.98;;;0.52;;
8401;SDS011;4238;48.404;9.498;2022-09-09T15:44:42;2.42;;;0.70;;
8401;SDS011;4238;48.404;9.498;2022-09-09T15:47:10;1.13;;;0.90;;
8401;SDS011;4238;48.404;9.498;2022-09-09T15:49:38;1.38;;;0.93;;